Detroit, Michigan
Traffic Map
Current Weather Conditions
Detroit, Michigan
Broken Clouds Light Fog
Broken Clouds

Feels Like: 4°
Wind Chill: Ceiling: 26000
Heat Index: Visibility: 8mi
Dew Point: Wind: 2mph
Humidity: 93% Direction: 260° (W)
Pressure: 30.08in Gusts: 0mph
Raw Report DataCYQG 241200Z 26002KT 8SM MIFG FEW140 BKN260 04/03 A3008 RMK AC1CC4 SLP191
Traffic Incident Summary
Active as of:
Severity:
Category:
InformationThere was an issue retrieving the traffic information for this location. Please try a different location or try again shortly.
Advertisements
Track Severe Weather on mobile